sensor_id;sensor_type;location;lat;lon;timestamp;temperature;humidity
15239;DHT22;7722;53.274;9.500;2023-04-03T00:01:48;0.10;99.90
15239;DHT22;7722;53.274;9.500;2023-04-03T00:04:15;0.10;99.90
15239;DHT22;7722;53.274;9.500;2023-04-03T00:06:42;0.10;99.90
15239;DHT22;7722;53.274;9.500;2023-04-03T00:09:09;0.10;99.90
15239;DHT22;7722;53.274;9.500;2023-04-03T00:11:36;0.20;99.90
15239;DHT22;7722;53.274;9.500;2023-04-03T00:14:03;0.20;99.90
15239;DHT22;7722;53.274;9.500;2023-04-03T00:16:31;0.20;99.90
15239;DHT22;7722;53.274;9.500;2023-04-03T00:18:58;0.20;99.90
15239;DHT22;7722;53.274;9.500;2023-04-03T00:21:25;0.10;99.90
15239;DHT22;7722;53.274;9.500;2023-04-03T00:23:52;0.10;99.90
15239;DHT22;7722;53.274;9.500;2023-04-03T00:26:19;0.10;99.90
15239;DHT22;7722;53.274;9.500;2023-04-03T00:28:46;0.10;99.90
15239;DHT22;7722;53.274;9.500;2023-04-03T00:31:14;0.10;99.90
15239;DHT22;7722;53.274;9.500;2023-04-03T00:33:43;0.10;99.90
15239;DHT22;7722;53.274;9.500;2023-04-03T00:36:11;0.20;99.90
15239;DHT22;7722;53.274;9.500;2023-04-03T00:38:39;0.20;99.90
15239;DHT22;7722;53.274;9.500;2023-04-03T00:41:06;0.20;99.90
15239;DHT22;7722;53.274;9.500;2023-04-03T00:43:33;0.20;99.90
15239;DHT22;7722;53.274;9.500;2023-04-03T00:46:00;0.20;99.90
15239;DHT22;7722;53.274;9.500;2023-04-03T00:48:30;0.10;99.90
15239;DHT22;7722;53.274;9.500;2023-04-03T00:51:00;0.10;99.90
15239;DHT22;7722;53.274;9.500;2023-04-03T00:53:31;0.10;99.90
15239;DHT22;7722;53.274;9.500;2023-04-03T00:56:00;0.20;99.90
15239;DHT22;7722;53.274;9.500;2023-04-03T00:58:32;0.20;99.90
15239;DHT22;7722;53.274;9.500;2023-04-03T01:01:03;0.20;99.90
15239;DHT22;7722;53.274;9.500;2023-04-03T01:03:31;0.30;99.90
15239;DHT22;7722;53.274;9.500;2023-04-03T01:06:00;0.30;99.90
15239;DHT22;7722;53.274;9.500;2023-04-03T01:08:27;0.20;99.90
15239;DHT22;7722;53.274;9.500;2023-04-03T01:10:55;0.20;99.90
15239;DHT22;7722;53.274;9.500;2023-04-03T01:13:25;0.20;99.90
15239;DHT22;7722;53.274;9.500;2023-04-03T01:15:52;0.10;99.90
15239;DHT22;7722;53.274;9.500;2023-04-03T01:18:20;0.00;99.90
15239;DHT22;7722;53.274;9.500;2023-04-03T01:21:13;0.00;99.90
15239;DHT22;7722;53.274;9.500;2023-04-03T01:23:55;0.10;99.90
15239;DHT22;7722;53.274;9.500;2023-04-03T01:26:25;0.10;99.90
15239;DHT22;7722;53.274;9.500;2023-04-03T01:28:54;0.10;99.90
15239;DHT22;7722;53.274;9.500;2023-04-03T01:31:24;0.10;99.90
15239;DHT22;7722;53.274;9.500;2023-04-03T01:33:53;0.20;99.90
15239;DHT22;7722;53.274;9.500;2023-04-03T01:36:22;0.10;99.90
15239;DHT22;7722;53.274;9.500;2023-04-03T01:38:51;0.10;99.90
15239;DHT22;7722;53.274;9.500;2023-04-03T01:41:19;0.10;99.90
15239;DHT22;7722;53.274;9.500;2023-04-03T01:43:46;0.10;99.90
15239;DHT22;7722;53.274;9.500;2023-04-03T01:46:14;0.00;99.90
15239;DHT22;7722;53.274;9.500;2023-04-03T01:48:41;0.00;99.90
15239;DHT22;7722;53.274;9.500;2023-04-03T01:51:10;-0.10;99.90
15239;DHT22;7722;53.274;9.500;2023-04-03T01:53:37;-0.10;99.90
15239;DHT22;7722;53.274;9.500;2023-04-03T01:56:05;-0.20;99.90
15239;DHT22;7722;53.274;9.500;2023-04-03T01:58:32;-0.30;99.90
15239;DHT22;7722;53.274;9.500;2023-04-03T02:00:59;-0.30;99.90
15239;DHT22;7722;53.274;9.500;2023-04-03T02:03:27;-0.30;99.90
15239;DHT22;7722;53.274;9.500;2023-04-03T02:05:54;-0.30;99.90
15239;DHT22;7722;53.274;9.500;2023-04-03T02:08:23;-0.30;99.90
15239;DHT22;7722;53.274;9.500;2023-04-03T02:10:50;-0.40;99.90
15239;DHT22;7722;53.274;9.500;2023-04-03T02:13:17;-0.40;99.90
15239;DHT22;7722;53.274;9.500;2023-04-03T02:15:45;-0.40;99.90
15239;DHT22;7722;53.274;9.500;2023-04-03T02:18:12;-0.40;99.90
15239;DHT22;7722;53.274;9.500;2023-04-03T02:20:39;-0.40;99.90
15239;DHT22;7722;53.274;9.500;2023-04-03T02:23:06;-0.50;99.90
15239;DHT22;7722;53.274;9.500;2023-04-03T02:25:35;-0.60;99.90
15239;DHT22;7722;53.274;9.500;2023-04-03T02:28:02;-0.60;99.90
15239;DHT22;7722;53.274;9.500;2023-04-03T02:30:29;-0.70;99.90
15239;DHT22;7722;53.274;9.500;2023-04-03T02:32:56;-0.80;99.90
15239;DHT22;7722;53.274;9.500;2023-04-03T02:35:23;-0.80;99.90
15239;DHT22;7722;53.274;9.500;2023-04-03T02:37:50;-0.80;99.90
15239;DHT22;7722;53.274;9.500;2023-04-03T02:40:17;-0.80;99.90
15239;DHT22;7722;53.274;9.500;2023-04-03T02:42:46;-0.80;99.90
15239;DHT22;7722;53.274;9.500;2023-04-03T02:45:13;-0.90;99.90
15239;DHT22;7722;53.274;9.500;2023-04-03T02:47:40;-0.90;99.90
15239;DHT22;7722;53.274;9.500;2023-04-03T02:50:07;-1.00;99.90
15239;DHT22;7722;53.274;9.500;2023-04-03T02:52:34;-1.00;99.90
15239;DHT22;7722;53.274;9.500;2023-04-03T02:55:02;-0.90;99.90
15239;DHT22;7722;53.274;9.500;2023-04-03T02:57:29;-0.90;99.90
15239;DHT22;7722;53.274;9.500;2023-04-03T02:59:57;-0.90;99.90
15239;DHT22;7722;53.274;9.500;2023-04-03T03:02:24;-1.00;99.90
15239;DHT22;7722;53.274;9.500;2023-04-03T03:04:51;-1.00;99.90
15239;DHT22;7722;53.274;9.500;2023-04-03T03:07:18;-1.00;99.90
15239;DHT22;7722;53.274;9.500;2023-04-03T03:09:45;-1.00;99.90
15239;DHT22;7722;53.274;9.500;2023-04-03T03:12:12;-1.10;99.90
15239;DHT22;7722;53.274;9.500;2023-04-03T03:14:39;-1.00;99.90
15239;DHT22;7722;53.274;9.500;2023-04-03T03:17:09;-1.00;99.90
15239;DHT22;7722;53.274;9.500;2023-04-03T03:19:37;-0.90;99.90
15239;DHT22;7722;53.274;9.500;2023-04-03T03:22:04;-0.90;99.90
15239;DHT22;7722;53.274;9.500;2023-04-03T03:24:31;-0.80;99.90
15239;DHT22;7722;53.274;9.500;2023-04-03T03:26:58;-0.80;99.90
15239;DHT22;7722;53.274;9.500;2023-04-03T03:29:25;-0.80;99.90
15239;DHT22;7722;53.274;9.500;2023-04-03T03:31:52;-0.90;99.90
15239;DHT22;7722;53.274;9.500;2023-04-03T03:34:21;-0.90;99.90
15239;DHT22;7722;53.274;9.500;2023-04-03T03:36:48;-1.00;99.90
15239;DHT22;7722;53.274;9.500;2023-04-03T03:39:15;-1.00;99.90
15239;DHT22;7722;53.274;9.500;2023-04-03T03:41:42;-1.10;99.90
15239;DHT22;7722;53.274;9.500;2023-04-03T03:44:10;-1.10;99.90
15239;DHT22;7722;53.274;9.500;2023-04-03T03:46:37;-1.10;99.90
15239;DHT22;7722;53.274;9.500;2023-04-03T03:49:04;-1.10;99.90
15239;DHT22;7722;53.274;9.500;2023-04-03T03:51:32;-1.10;99.90
15239;DHT22;7722;53.274;9.500;2023-04-03T03:53:59;-1.10;99.90
15239;DHT22;7722;53.274;9.500;2023-04-03T03:56:26;-1.10;99.90
15239;DHT22;7722;53.274;9.500;2023-04-03T03:58:53;-1.20;99.90
15239;DHT22;7722;53.274;9.500;2023-04-03T04:01:22;-1.20;99.90
15239;DHT22;7722;53.274;9.500;2023-04-03T04:03:49;-1.20;99.90
15239;DHT22;7722;53.274;9.500;2023-04-03T04:06:16;-1.20;99.90
15239;DHT22;7722;53.274;9.500;2023-04-03T04:08:44;-1.20;99.90
15239;DHT22;7722;53.274;9.500;2023-04-03T04:11:11;-1.20;99.90
15239;DHT22;7722;53.274;9.500;2023-04-03T04:13:38;-1.30;99.90
15239;DHT22;7722;53.274;9.500;2023-04-03T04:16:07;-1.30;99.90
15239;DHT22;7722;53.274;9.500;2023-04-03T04:18:35;-1.40;99.90
15239;DHT22;7722;53.274;9.500;2023-04-03T04:21:02;-1.40;99.90
15239;DHT22;7722;53.274;9.500;2023-04-03T04:23:29;-1.50;99.90
15239;DHT22;7722;53.274;9.500;2023-04-03T04:25:57;-1.50;99.90
15239;DHT22;7722;53.274;9.500;2023-04-03T04:28:25;-1.50;99.90
15239;DHT22;7722;53.274;9.500;2023-04-03T04:30:52;-1.60;99.90
15239;DHT22;7722;53.274;9.500;2023-04-03T04:33:19;-1.60;99.90
15239;DHT22;7722;53.274;9.500;2023-04-03T04:35:47;-1.70;99.90
15239;DHT22;7722;53.274;9.500;2023-04-03T04:38:14;-1.70;99.90
15239;DHT22;7722;53.274;9.500;2023-04-03T04:40:41;-1.70;99.90
15239;DHT22;7722;53.274;9.500;2023-04-03T04:43:10;-1.70;99.90
15239;DHT22;7722;53.274;9.500;2023-04-03T04:45:40;-1.70;99.90
15239;DHT22;7722;53.274;9.500;2023-04-03T04:48:07;-1.70;99.90
15239;DHT22;7722;53.274;9.500;2023-04-03T04:50:34;-1.70;99.90
15239;DHT22;7722;53.274;9.500;2023-04-03T04:53:01;-1.80;99.90
15239;DHT22;7722;53.274;9.500;2023-04-03T04:55:29;-1.80;99.90
15239;DHT22;7722;53.274;9.500;2023-04-03T04:57:56;-1.80;99.90
15239;DHT22;7722;53.274;9.500;2023-04-03T05:00:25;-1.80;99.90
15239;DHT22;7722;53.274;9.500;2023-04-03T05:02:52;-1.80;99.90
15239;DHT22;7722;53.274;9.500;2023-04-03T05:05:19;-1.80;99.90
15239;DHT22;7722;53.274;9.500;2023-04-03T05:07:46;-1.80;99.90
15239;DHT22;7722;53.274;9.500;2023-04-03T05:10:13;-1.80;99.90
15239;DHT22;7722;53.274;9.500;2023-04-03T05:12:40;-1.80;99.90
15239;DHT22;7722;53.274;9.500;2023-04-03T05:15:08;-1.80;99.90
15239;DHT22;7722;53.274;9.500;2023-04-03T05:17:37;-1.80;99.90
15239;DHT22;7722;53.274;9.500;2023-04-03T05:20:05;-1.70;99.90
15239;DHT22;7722;53.274;9.500;2023-04-03T05:22:32;-1.60;99.90
15239;DHT22;7722;53.274;9.500;2023-04-03T05:24:59;-1.60;99.90
15239;DHT22;7722;53.274;9.500;2023-04-03T05:27:26;-1.50;99.90
15239;DHT22;7722;53.274;9.500;2023-04-03T05:29:54;-1.50;99.90
15239;DHT22;7722;53.274;9.500;2023-04-03T05:32:22;-1.50;99.90
15239;DHT22;7722;53.274;9.500;2023-04-03T05:34:50;-1.40;99.90
15239;DHT22;7722;53.274;9.500;2023-04-03T05:37:18;-1.40;99.90
15239;DHT22;7722;53.274;9.500;2023-04-03T05:39:45;-1.30;99.90
15239;DHT22;7722;53.274;9.500;2023-04-03T05:42:12;-1.30;99.90
15239;DHT22;7722;53.274;9.500;2023-04-03T05:44:40;-1.20;99.90
15239;DHT22;7722;53.274;9.500;2023-04-03T05:47:07;-1.10;99.90
15239;DHT22;7722;53.274;9.500;2023-04-03T05:49:34;-1.10;99.90
15239;DHT22;7722;53.274;9.500;2023-04-03T05:52:11;-1.10;99.90
15239;DHT22;7722;53.274;9.500;2023-04-03T05:54:44;-1.00;99.90
15239;DHT22;7722;53.274;9.500;2023-04-03T05:57:13;-1.00;99.90
15239;DHT22;7722;53.274;9.500;2023-04-03T05:59:41;-0.90;99.90
15239;DHT22;7722;53.274;9.500;2023-04-03T06:02:10;-0.80;99.90
15239;DHT22;7722;53.274;9.500;2023-04-03T06:04:38;-0.80;99.90
15239;DHT22;7722;53.274;9.500;2023-04-03T06:07:08;-0.70;99.90
15239;DHT22;7722;53.274;9.500;2023-04-03T06:09:40;-0.50;99.90
15239;DHT22;7722;53.274;9.500;2023-04-03T06:12:17;-0.50;99.90
15239;DHT22;7722;53.274;9.500;2023-04-03T06:14:44;-0.40;99.90
15239;DHT22;7722;53.274;9.500;2023-04-03T06:17:12;-0.30;99.90
15239;DHT22;7722;53.274;9.500;2023-04-03T06:19:39;-0.20;99.90
15239;DHT22;7722;53.274;9.500;2023-04-03T06:22:07;-0.10;99.90
15239;DHT22;7722;53.274;9.500;2023-04-03T06:24:34;0.00;99.90
15239;DHT22;7722;53.274;9.500;2023-04-03T06:27:02;0.00;99.90
15239;DHT22;7722;53.274;9.500;2023-04-03T06:29:30;0.20;99.90
15239;DHT22;7722;53.274;9.500;2023-04-03T06:31:57;0.20;99.90
15239;DHT22;7722;53.274;9.500;2023-04-03T06:34:24;0.20;99.90
15239;DHT22;7722;53.274;9.500;2023-04-03T06:36:52;0.30;99.90
15239;DHT22;7722;53.274;9.500;2023-04-03T06:39:21;0.40;99.90
15239;DHT22;7722;53.274;9.500;2023-04-03T06:41:50;0.50;99.90
15239;DHT22;7722;53.274;9.500;2023-04-03T06:44:17;0.50;99.90
15239;DHT22;7722;53.274;9.500;2023-04-03T06:46:45;0.60;99.90
15239;DHT22;7722;53.274;9.500;2023-04-03T06:49:13;0.70;99.90
15239;DHT22;7722;53.274;9.500;2023-04-03T06:51:40;0.80;99.90
15239;DHT22;7722;53.274;9.500;2023-04-03T06:54:07;0.90;99.90
15239;DHT22;7722;53.274;9.500;2023-04-03T06:56:36;1.00;99.90
15239;DHT22;7722;53.274;9.500;2023-04-03T06:59:03;1.10;99.90
15239;DHT22;7722;53.274;9.500;2023-04-03T07:01:30;1.30;99.90
15239;DHT22;7722;53.274;9.500;2023-04-03T07:03:57;1.40;99.90
15239;DHT22;7722;53.274;9.500;2023-04-03T07:06:24;1.50;99.90
15239;DHT22;7722;53.274;9.500;2023-04-03T07:08:53;1.60;99.90
15239;DHT22;7722;53.274;9.500;2023-04-03T07:11:20;1.60;99.90
15239;DHT22;7722;53.274;9.500;2023-04-03T07:13:49;1.70;99.90
15239;DHT22;7722;53.274;9.500;2023-04-03T07:16:16;1.70;99.90
15239;DHT22;7722;53.274;9.500;2023-04-03T07:18:43;1.80;99.90
15239;DHT22;7722;53.274;9.500;2023-04-03T07:21:11;1.90;99.90
15239;DHT22;7722;53.274;9.500;2023-04-03T07:23:39;2.00;99.90
15239;DHT22;7722;53.274;9.500;2023-04-03T07:26:06;2.10;99.90
15239;DHT22;7722;53.274;9.500;2023-04-03T07:28:33;2.30;99.90
15239;DHT22;7722;53.274;9.500;2023-04-03T07:31:06;2.40;99.90
15239;DHT22;7722;53.274;9.500;2023-04-03T07:33:34;2.60;99.90
15239;DHT22;7722;53.274;9.500;2023-04-03T07:36:03;2.80;99.90
15239;DHT22;7722;53.274;9.500;2023-04-03T07:38:30;2.90;99.90
15239;DHT22;7722;53.274;9.500;2023-04-03T07:40:57;3.00;99.90
15239;DHT22;7722;53.274;9.500;2023-04-03T07:43:24;3.30;99.90
15239;DHT22;7722;53.274;9.500;2023-04-03T07:45:52;3.50;99.90
15239;DHT22;7722;53.274;9.500;2023-04-03T07:48:24;3.70;99.90
15239;DHT22;7722;53.274;9.500;2023-04-03T07:50:51;3.70;99.90
15239;DHT22;7722;53.274;9.500;2023-04-03T07:53:19;3.80;99.90
15239;DHT22;7722;53.274;9.500;2023-04-03T07:55:46;4.00;99.90
15239;DHT22;7722;53.274;9.500;2023-04-03T07:58:16;4.30;99.90
15239;DHT22;7722;53.274;9.500;2023-04-03T08:00:43;4.30;99.90
15239;DHT22;7722;53.274;9.500;2023-04-03T08:03:10;4.40;99.90
15239;DHT22;7722;53.274;9.500;2023-04-03T08:05:40;4.40;99.90
15239;DHT22;7722;53.274;9.500;2023-04-03T08:08:09;4.50;99.90
15239;DHT22;7722;53.274;9.500;2023-04-03T08:10:36;4.50;99.90
15239;DHT22;7722;53.274;9.500;2023-04-03T08:13:04;4.60;99.90
15239;DHT22;7722;53.274;9.500;2023-04-03T08:15:32;4.80;99.90
15239;DHT22;7722;53.274;9.500;2023-04-03T08:17:59;4.90;99.90
15239;DHT22;7722;53.274;9.500;2023-04-03T08:20:27;5.10;99.90
15239;DHT22;7722;53.274;9.500;2023-04-03T08:22:56;5.30;99.90
15239;DHT22;7722;53.274;9.500;2023-04-03T08:25:23;5.30;99.90
15239;DHT22;7722;53.274;9.500;2023-04-03T08:27:50;5.30;99.70
15239;DHT22;7722;53.274;9.500;2023-04-03T08:30:17;5.40;99.30
15239;DHT22;7722;53.274;9.500;2023-04-03T08:32:45;5.30;98.40
15239;DHT22;7722;53.274;9.500;2023-04-03T08:35:12;5.30;97.30
15239;DHT22;7722;53.274;9.500;2023-04-03T08:37:40;5.40;97.10
15239;DHT22;7722;53.274;9.500;2023-04-03T08:40:14;5.60;97.10
15239;DHT22;7722;53.274;9.500;2023-04-03T08:42:50;5.80;97.00
15239;DHT22;7722;53.274;9.500;2023-04-03T08:45:25;5.90;97.20
15239;DHT22;7722;53.274;9.500;2023-04-03T08:47:56;5.90;95.20
15239;DHT22;7722;53.274;9.500;2023-04-03T08:50:28;6.00;96.20
15239;DHT22;7722;53.274;9.500;2023-04-03T08:52:59;6.30;96.60
15239;DHT22;7722;53.274;9.500;2023-04-03T08:55:31;6.50;95.60
15239;DHT22;7722;53.274;9.500;2023-04-03T08:58:01;6.50;95.50
15239;DHT22;7722;53.274;9.500;2023-04-03T09:00:30;6.60;94.80
15239;DHT22;7722;53.274;9.500;2023-04-03T09:02:59;6.60;93.50
15239;DHT22;7722;53.274;9.500;2023-04-03T09:05:35;6.50;93.90
15239;DHT22;7722;53.274;9.500;2023-04-03T09:08:11;7.00;94.90
15239;DHT22;7722;53.274;9.500;2023-04-03T09:10:40;6.90;95.20
15239;DHT22;7722;53.274;9.500;2023-04-03T09:13:17;6.90;94.10
15239;DHT22;7722;53.274;9.500;2023-04-03T09:15:48;7.20;94.30
15239;DHT22;7722;53.274;9.500;2023-04-03T09:18:18;7.30;94.10
15239;DHT22;7722;53.274;9.500;2023-04-03T09:20:49;7.20;93.90
15239;DHT22;7722;53.274;9.500;2023-04-03T09:23:26;7.20;93.20
15239;DHT22;7722;53.274;9.500;2023-04-03T09:26:00;7.50;93.00
15239;DHT22;7722;53.274;9.500;2023-04-03T09:28:30;7.60;92.50
15239;DHT22;7722;53.274;9.500;2023-04-03T09:31:00;7.70;92.80
15239;DHT22;7722;53.274;9.500;2023-04-03T09:33:29;8.00;91.90
15239;DHT22;7722;53.274;9.500;2023-04-03T09:35:57;8.20;91.40
15239;DHT22;7722;53.274;9.500;2023-04-03T09:38:24;8.80;91.20
15239;DHT22;7722;53.274;9.500;2023-04-03T09:41:05;9.00;90.40
15239;DHT22;7722;53.274;9.500;2023-04-03T09:43:34;9.20;91.20
15239;DHT22;7722;53.274;9.500;2023-04-03T09:46:18;9.10;85.20
15239;DHT22;7722;53.274;9.500;2023-04-03T09:48:51;8.70;86.40
15239;DHT22;7722;53.274;9.500;2023-04-03T09:51:19;8.90;85.90
15239;DHT22;7722;53.274;9.500;2023-04-03T09:53:46;9.10;83.50
15239;DHT22;7722;53.274;9.500;2023-04-03T09:56:23;9.00;85.30
15239;DHT22;7722;53.274;9.500;2023-04-03T09:58:53;9.00;85.90
15239;DHT22;7722;53.274;9.500;2023-04-03T10:01:31;9.50;86.70
15239;DHT22;7722;53.274;9.500;2023-04-03T10:04:08;8.90;85.50
15239;DHT22;7722;53.274;9.500;2023-04-03T10:06:38;9.20;83.90
15239;DHT22;7722;53.274;9.500;2023-04-03T10:09:17;9.50;82.10
15239;DHT22;7722;53.274;9.500;2023-04-03T10:11:59;9.80;83.00
15239;DHT22;7722;53.274;9.500;2023-04-03T10:14:27;10.10;75.80
15239;DHT22;7722;53.274;9.500;2023-04-03T10:16:59;9.70;79.20
15239;DHT22;7722;53.274;9.500;2023-04-03T10:19:35;9.40;79.10
15239;DHT22;7722;53.274;9.500;2023-04-03T10:22:08;9.80;80.50
15239;DHT22;7722;53.274;9.500;2023-04-03T10:24:45;9.70;82.10
15239;DHT22;7722;53.274;9.500;2023-04-03T10:27:20;10.20;77.40
15239;DHT22;7722;53.274;9.500;2023-04-03T10:29:55;10.10;77.30
15239;DHT22;7722;53.274;9.500;2023-04-03T10:32:50;10.80;75.70
15239;DHT22;7722;53.274;9.500;2023-04-03T10:35:29;11.10;73.40
15239;DHT22;7722;53.274;9.500;2023-04-03T10:38:06;11.20;70.60
15239;DHT22;7722;53.274;9.500;2023-04-03T10:40:38;10.90;70.50
15239;DHT22;7722;53.274;9.500;2023-04-03T10:43:17;10.80;71.40
15239;DHT22;7722;53.274;9.500;2023-04-03T10:45:57;11.10;73.90
15239;DHT22;7722;53.274;9.500;2023-04-03T10:48:36;11.50;70.80
15239;DHT22;7722;53.274;9.500;2023-04-03T10:51:14;11.90;70.90
15239;DHT22;7722;53.274;9.500;2023-04-03T10:53:47;12.40;68.20
15239;DHT22;7722;53.274;9.500;2023-04-03T10:56:21;12.70;72.50
15239;DHT22;7722;53.274;9.500;2023-04-03T10:58:53;12.00;70.70
15239;DHT22;7722;53.274;9.500;2023-04-03T11:01:26;12.30;72.60
15239;DHT22;7722;53.274;9.500;2023-04-03T11:03:59;12.30;71.20
15239;DHT22;7722;53.274;9.500;2023-04-03T11:06:40;11.50;68.40
15239;DHT22;7722;53.274;9.500;2023-04-03T11:09:18;10.80;68.10
15239;DHT22;7722;53.274;9.500;2023-04-03T11:11:47;10.30;71.60
15239;DHT22;7722;53.274;9.500;2023-04-03T11:14:24;10.40;70.00
15239;DHT22;7722;53.274;9.500;2023-04-03T11:16:59;10.20;68.60
15239;DHT22;7722;53.274;9.500;2023-04-03T11:19:34;9.90;72.20
15239;DHT22;7722;53.274;9.500;2023-04-03T11:22:09;9.40;71.90
15239;DHT22;7722;53.274;9.500;2023-04-03T11:24:41;9.60;71.70
15239;DHT22;7722;53.274;9.500;2023-04-03T11:27:11;9.90;72.70
15239;DHT22;7722;53.274;9.500;2023-04-03T11:29:44;10.30;72.10
15239;DHT22;7722;53.274;9.500;2023-04-03T11:32:29;10.30;70.20
15239;DHT22;7722;53.274;9.500;2023-04-03T11:35:05;10.40;72.50
15239;DHT22;7722;53.274;9.500;2023-04-03T11:37:37;10.00;70.50
15239;DHT22;7722;53.274;9.500;2023-04-03T11:40:07;9.70;73.00
15239;DHT22;7722;53.274;9.500;2023-04-03T11:42:47;9.50;73.50
15239;DHT22;7722;53.274;9.500;2023-04-03T11:45:29;9.50;72.80
15239;DHT22;7722;53.274;9.500;2023-04-03T11:47:59;9.20;73.80
15239;DHT22;7722;53.274;9.500;2023-04-03T11:50:44;9.00;73.30
15239;DHT22;7722;53.274;9.500;2023-04-03T11:53:41;9.30;73.60
15239;DHT22;7722;53.274;9.500;2023-04-03T11:56:29;9.60;73.70
15239;DHT22;7722;53.274;9.500;2023-04-03T11:59:23;9.70;73.40
15239;DHT22;7722;53.274;9.500;2023-04-03T12:01:56;9.80;74.80
15239;DHT22;7722;53.274;9.500;2023-04-03T12:04:24;10.30;75.60
15239;DHT22;7722;53.274;9.500;2023-04-03T12:10:16;10.20;69.70
15239;DHT22;7722;53.274;9.500;2023-04-03T12:12:56;10.20;71.30
15239;DHT22;7722;53.274;9.500;2023-04-03T12:15:52;11.30;71.20
15239;DHT22;7722;53.274;9.500;2023-04-03T12:18:41;10.80;69.10
15239;DHT22;7722;53.274;9.500;2023-04-03T12:21:09;11.40;68.30
15239;DHT22;7722;53.274;9.500;2023-04-03T12:23:37;11.40;66.00
15239;DHT22;7722;53.274;9.500;2023-04-03T12:26:24;11.80;66.40
15239;DHT22;7722;53.274;9.500;2023-04-03T12:28:53;12.40;66.10
15239;DHT22;7722;53.274;9.500;2023-04-03T12:31:25;12.70;67.30
15239;DHT22;7722;53.274;9.500;2023-04-03T12:34:18;12.70;65.80
15239;DHT22;7722;53.274;9.500;2023-04-03T12:36:59;13.10;64.30
15239;DHT22;7722;53.274;9.500;2023-04-03T12:39:48;13.30;64.10
15239;DHT22;7722;53.274;9.500;2023-04-03T12:42:44;13.40;63.90
15239;DHT22;7722;53.274;9.500;2023-04-03T12:45:18;13.90;63.00
15239;DHT22;7722;53.274;9.500;2023-04-03T12:47:48;13.90;62.70
15239;DHT22;7722;53.274;9.500;2023-04-03T12:50:23;14.40;60.50
15239;DHT22;7722;53.274;9.500;2023-04-03T12:52:59;14.90;58.60
15239;DHT22;7722;53.274;9.500;2023-04-03T12:55:27;13.70;58.60
15239;DHT22;7722;53.274;9.500;2023-04-03T12:57:54;13.50;62.20
15239;DHT22;7722;53.274;9.500;2023-04-03T13:00:30;14.00;59.10
15239;DHT22;7722;53.274;9.500;2023-04-03T13:02:59;13.60;57.20
15239;DHT22;7722;53.274;9.500;2023-04-03T13:05:28;13.30;58.40
15239;DHT22;7722;53.274;9.500;2023-04-03T13:07:59;13.40;59.20
15239;DHT22;7722;53.274;9.500;2023-04-03T13:10:27;13.80;57.10
15239;DHT22;7722;53.274;9.500;2023-04-03T13:12:56;13.40;58.00
15239;DHT22;7722;53.274;9.500;2023-04-03T13:15:25;14.00;57.90
15239;DHT22;7722;53.274;9.500;2023-04-03T13:17:54;14.00;56.90
15239;DHT22;7722;53.274;9.500;2023-04-03T13:20:24;14.00;59.80
15239;DHT22;7722;53.274;9.500;2023-04-03T13:22:57;14.50;56.50
15239;DHT22;7722;53.274;9.500;2023-04-03T13:25:27;15.30;57.80
15239;DHT22;7722;53.274;9.500;2023-04-03T13:27:55;15.00;53.90
15239;DHT22;7722;53.274;9.500;2023-04-03T13:30:27;15.10;55.90
15239;DHT22;7722;53.274;9.500;2023-04-03T13:32:55;15.20;55.50
15239;DHT22;7722;53.274;9.500;2023-04-03T13:35:28;15.20;54.30
15239;DHT22;7722;53.274;9.500;2023-04-03T13:37:59;14.50;54.20
15239;DHT22;7722;53.274;9.500;2023-04-03T13:40:26;13.30;55.10
15239;DHT22;7722;53.274;9.500;2023-04-03T13:43:06;13.50;53.80
15239;DHT22;7722;53.274;9.500;2023-04-03T13:45:58;14.60;57.00
15239;DHT22;7722;53.274;9.500;2023-04-03T13:48:25;14.30;57.70
15239;DHT22;7722;53.274;9.500;2023-04-03T13:51:02;14.50;56.70
15239;DHT22;7722;53.274;9.500;2023-04-03T13:53:32;14.50;56.70
15239;DHT22;7722;53.274;9.500;2023-04-03T13:56:06;15.50;56.30
15239;DHT22;7722;53.274;9.500;2023-04-03T13:58:34;16.50;54.80
15239;DHT22;7722;53.274;9.500;2023-04-03T14:01:09;16.00;55.00
15239;DHT22;7722;53.274;9.500;2023-04-03T14:03:44;15.00;54.40
15239;DHT22;7722;53.274;9.500;2023-04-03T14:06:12;15.20;55.70
15239;DHT22;7722;53.274;9.500;2023-04-03T14:08:42;16.50;53.30
15239;DHT22;7722;53.274;9.500;2023-04-03T14:11:14;16.90;54.20
15239;DHT22;7722;53.274;9.500;2023-04-03T14:13:42;17.00;54.30
15239;DHT22;7722;53.274;9.500;2023-04-03T14:16:13;16.30;52.80
15239;DHT22;7722;53.274;9.500;2023-04-03T14:18:41;16.30;55.00
15239;DHT22;7722;53.274;9.500;2023-04-03T14:21:10;15.80;53.70
15239;DHT22;7722;53.274;9.500;2023-04-03T14:23:37;15.40;54.60
15239;DHT22;7722;53.274;9.500;2023-04-03T14:26:10;14.30;56.90
15239;DHT22;7722;53.274;9.500;2023-04-03T14:28:38;14.10;57.50
15239;DHT22;7722;53.274;9.500;2023-04-03T14:31:06;13.50;57.20
15239;DHT22;7722;53.274;9.500;2023-04-03T14:33:33;12.50;57.00
15239;DHT22;7722;53.274;9.500;2023-04-03T14:36:10;11.80;57.70
15239;DHT22;7722;53.274;9.500;2023-04-03T14:38:38;11.90;58.10
15239;DHT22;7722;53.274;9.500;2023-04-03T14:41:06;12.50;58.50
15239;DHT22;7722;53.274;9.500;2023-04-03T14:43:33;13.10;57.00
15239;DHT22;7722;53.274;9.500;2023-04-03T14:46:00;14.10;59.00
15239;DHT22;7722;53.274;9.500;2023-04-03T14:48:28;15.00;56.90
15239;DHT22;7722;53.274;9.500;2023-04-03T14:50:56;15.20;54.30
15239;DHT22;7722;53.274;9.500;2023-04-03T14:53:24;13.30;56.10
15239;DHT22;7722;53.274;9.500;2023-04-03T14:55:52;12.70;57.90
15239;DHT22;7722;53.274;9.500;2023-04-03T14:58:21;12.90;58.20
15239;DHT22;7722;53.274;9.500;2023-04-03T15:00:48;12.10;59.30
15239;DHT22;7722;53.274;9.500;2023-04-03T15:03:20;11.80;58.70
15239;DHT22;7722;53.274;9.500;2023-04-03T15:05:48;11.30;59.10
15239;DHT22;7722;53.274;9.500;2023-04-03T15:08:19;12.10;60.40
15239;DHT22;7722;53.274;9.500;2023-04-03T15:10:47;13.00;56.90
15239;DHT22;7722;53.274;9.500;2023-04-03T15:13:15;13.50;56.50
15239;DHT22;7722;53.274;9.500;2023-04-03T15:15:44;14.50;56.60
15239;DHT22;7722;53.274;9.500;2023-04-03T15:18:16;14.50;55.60
15239;DHT22;7722;53.274;9.500;2023-04-03T15:20:44;14.70;53.30
15239;DHT22;7722;53.274;9.500;2023-04-03T15:23:12;14.10;54.20
15239;DHT22;7722;53.274;9.500;2023-04-03T15:25:41;13.60;55.10
15239;DHT22;7722;53.274;9.500;2023-04-03T15:28:13;13.10;56.30
15239;DHT22;7722;53.274;9.500;2023-04-03T15:30:43;12.60;55.50
15239;DHT22;7722;53.274;9.500;2023-04-03T15:33:10;11.60;58.20
15239;DHT22;7722;53.274;9.500;2023-04-03T15:35:37;11.40;59.10
15239;DHT22;7722;53.274;9.500;2023-04-03T15:38:04;11.20;58.30
15239;DHT22;7722;53.274;9.500;2023-04-03T15:40:32;11.80;58.50
15239;DHT22;7722;53.274;9.500;2023-04-03T15:42:59;12.40;57.90
15239;DHT22;7722;53.274;9.500;2023-04-03T15:45:28;13.00;56.10
15239;DHT22;7722;53.274;9.500;2023-04-03T15:47:58;13.60;55.80
15239;DHT22;7722;53.274;9.500;2023-04-03T15:50:25;12.90;54.50
15239;DHT22;7722;53.274;9.500;2023-04-03T15:52:53;13.20;56.60
15239;DHT22;7722;53.274;9.500;2023-04-03T15:55:21;13.20;54.90
15239;DHT22;7722;53.274;9.500;2023-04-03T15:57:48;12.20;55.00
15239;DHT22;7722;53.274;9.500;2023-04-03T16:00:16;12.10;56.50
15239;DHT22;7722;53.274;9.500;2023-04-03T16:02:44;11.90;56.00
15239;DHT22;7722;53.274;9.500;2023-04-03T16:05:14;11.70;57.60
15239;DHT22;7722;53.274;9.500;2023-04-03T16:07:43;11.80;56.70
15239;DHT22;7722;53.274;9.500;2023-04-03T16:10:12;12.00;57.70
15239;DHT22;7722;53.274;9.500;2023-04-03T16:12:39;12.70;56.70
15239;DHT22;7722;53.274;9.500;2023-04-03T16:15:07;12.50;55.40